Garfield, Georgia
Current Conditions -  °F | °C
As of 5:15 PM on Sunday 25 Jan 2015 (Local Time) from KSBO Reporting Station
Clear Clear  
Wind Chill: 61°   Ceiling: Unl
Heat Index: 61°   Visibility: 10mi
Dew Point: 10°   Wind: 7mph
Humidity: 14%   Direction: 200°SSW
Pressure: 29.84"   Gusts: NA
Location:  32.65°N, 82.1°W
Report Text: KSBO 252215Z AUTO 20006KT 180V240 10SM CLR 16/M12 A2984 RMK AO2
Loading
Personal Weather Stations






























Interactive Weather Map New forecast layout! Learn more

10-Day Weather Forecast

Advertisements
Track Severe Weather on mobile